Baraboo/Wisconsin Dells, Wisconsin
Current Conditions -  °F | °C
As of 2:10 PM on Monday 26 Jan 2015 (Local Time) from KDLL Reporting Station
Haze Haze  
Wind Chill: 14°   Ceiling: 600
Heat Index: 22°   Visibility: 2mi
Dew Point: 20°   Wind: 7mph
Humidity: 93%   Direction: 160°SSE
Pressure: 29.77"   Gusts: NA
Location:  43.55°N, 89.77°W
Report Text: KDLL 262010Z AUTO 16006KT 2SM BR OVC006 M05/M06 A2977 RMK AO2 T10551065
Loading
Personal Weather Stations






























Interactive Weather Map New forecast layout! Learn more

10-Day Weather Forecast

Advertisements
Track Severe Weather on mobile